createdAt,value
2023-04-07T00:00:00.250Z,15.23
2023-04-07T00:03:02.576Z,15.35
2023-04-07T00:06:04.397Z,14.50
2023-04-07T00:09:06.184Z,15.52
2023-04-07T00:12:07.886Z,15.52
2023-04-07T00:15:09.986Z,16.05
2023-04-07T00:18:11.670Z,15.85
2023-04-07T00:21:13.352Z,17.12
2023-04-07T00:24:20.954Z,16.87
2023-04-07T00:27:29.019Z,16.67
2023-04-07T00:30:30.747Z,16.98
2023-04-07T00:33:32.414Z,16.17
2023-04-07T00:36:34.088Z,18.33
2023-04-07T00:39:35.745Z,17.58
2023-04-07T00:42:37.368Z,18.42
2023-04-07T00:45:39.088Z,16.67
2023-04-07T00:48:40.996Z,17.85
2023-04-07T00:51:42.639Z,16.90
2023-04-07T00:54:46.950Z,17.33
2023-04-07T00:57:48.993Z,18.62
2023-04-07T01:01:15.702Z,18.27
2023-04-07T01:04:26.503Z,17.87
2023-04-07T01:07:44.326Z,16.83
2023-04-07T01:10:53.204Z,19.00
2023-04-07T01:13:55.418Z,18.10
2023-04-07T01:17:01.982Z,18.60
2023-04-07T01:20:08.244Z,19.05
2023-04-07T01:23:17.707Z,18.15
2023-04-07T01:26:24.879Z,18.48
2023-04-07T01:29:33.122Z,18.00
2023-04-07T01:32:37.064Z,19.15
2023-04-07T01:35:40.580Z,17.73
2023-04-07T01:38:44.243Z,17.83
2023-04-07T01:41:46.664Z,17.92
2023-04-07T01:44:48.834Z,17.05
2023-04-07T01:47:51.275Z,18.87
2023-04-07T01:50:54.830Z,17.37
2023-04-07T01:53:57.663Z,17.67
2023-04-07T01:56:59.412Z,18.42
2023-04-07T02:00:01.046Z,17.58
2023-04-07T02:03:10.726Z,17.75
2023-04-07T02:06:16.739Z,18.45
2023-04-07T02:09:21.463Z,17.27
2023-04-07T02:12:26.477Z,18.12
2023-04-07T02:15:28.677Z,18.85
2023-04-07T02:18:32.479Z,18.67
2023-04-07T02:21:35.378Z,20.42
2023-04-07T02:24:36.990Z,18.98
2023-04-07T02:27:38.722Z,18.80
2023-04-07T02:30:40.520Z,19.60
2023-04-07T02:33:42.195Z,19.58
2023-04-07T02:36:44.080Z,19.17
2023-04-07T02:39:46.024Z,18.65
2023-04-07T02:42:47.745Z,19.75
2023-04-07T02:45:49.423Z,19.12
2023-04-07T02:48:51.872Z,19.67
2023-04-07T02:51:53.516Z,19.25
2023-04-07T02:54:55.509Z,19.77
2023-04-07T02:57:57.107Z,19.67
2023-04-07T03:00:58.749Z,19.67
2023-04-07T03:04:00.492Z,18.83
2023-04-07T03:07:02.329Z,19.92
2023-04-07T03:10:04.119Z,20.48
2023-04-07T03:13:06.183Z,19.87
2023-04-07T03:16:07.884Z,20.77
2023-04-07T03:19:09.976Z,19.95
2023-04-07T03:22:11.614Z,19.48
2023-04-07T03:25:13.504Z,19.60
2023-04-07T03:28:15.741Z,19.58
2023-04-07T03:31:17.404Z,19.80
2023-04-07T03:34:19.157Z,19.92
2023-04-07T03:37:20.934Z,20.27
2023-04-07T03:40:22.512Z,19.98
2023-04-07T03:43:24.152Z,20.77
2023-04-07T03:46:27.241Z,18.87
2023-04-07T03:49:29.549Z,20.73
2023-04-07T03:52:31.621Z,20.35
2023-04-07T03:55:34.464Z,19.90
2023-04-07T03:58:36.217Z,20.55
2023-04-07T04:01:38.065Z,20.88
2023-04-07T04:04:39.794Z,22.50
2023-04-07T04:07:41.519Z,22.95
2023-04-07T04:10:43.161Z,21.27
2023-04-07T04:13:44.804Z,21.67
2023-04-07T04:16:46.500Z,20.10
2023-04-07T04:19:48.207Z,22.62
2023-04-07T04:22:49.850Z,21.95
2023-04-07T04:25:51.823Z,20.62
2023-04-07T04:28:53.656Z,20.98
2023-04-07T04:31:55.446Z,21.02
2023-04-07T04:34:57.049Z,20.88
2023-04-07T04:37:58.799Z,21.02
2023-04-07T04:41:00.561Z,20.80
2023-04-07T04:44:02.163Z,20.23
2023-04-07T04:47:03.844Z,22.08
2023-04-07T04:50:09.066Z,21.62
2023-04-07T04:53:10.708Z,22.92
2023-04-07T04:56:12.612Z,22.77
2023-04-07T04:59:14.317Z,22.50
2023-04-07T05:02:16.496Z,23.55
2023-04-07T05:05:18.355Z,22.37
2023-04-07T05:08:20.536Z,23.60
2023-04-07T05:11:22.461Z,24.95
2023-04-07T05:14:26.411Z,23.40
2023-04-07T05:17:28.156Z,24.00
2023-04-07T05:20:30.269Z,23.90
2023-04-07T05:23:32.027Z,24.52
2023-04-07T05:26:33.695Z,24.63
2023-04-07T05:29:35.310Z,23.90
2023-04-07T05:32:37.059Z,24.15
2023-04-07T05:35:38.756Z,23.98
2023-04-07T05:38:40.452Z,25.10
2023-04-07T05:41:42.402Z,24.65
2023-04-07T05:44:44.101Z,23.85
2023-04-07T05:47:49.982Z,23.90
2023-04-07T05:50:51.685Z,24.45
2023-04-07T05:53:53.538Z,28.92
2023-04-07T05:56:56.339Z,27.92
2023-04-07T05:59:58.127Z,25.35
2023-04-07T06:03:00.146Z,24.15
2023-04-07T06:06:03.908Z,25.20
2023-04-07T06:09:07.007Z,24.52
2023-04-07T06:12:12.357Z,25.08
2023-04-07T06:15:14.083Z,26.02
2023-04-07T06:18:15.933Z,25.17
2023-04-07T06:21:17.843Z,25.27
2023-04-07T06:24:22.720Z,23.60
2023-04-07T06:27:24.390Z,25.27
2023-04-07T06:30:26.138Z,25.65
2023-04-07T06:33:28.664Z,24.75
2023-04-07T06:36:30.487Z,25.02
2023-04-07T06:39:32.341Z,23.83
2023-04-07T06:42:34.009Z,22.55
2023-04-07T06:45:35.751Z,21.25
2023-04-07T06:48:37.437Z,21.67
2023-04-07T06:51:39.165Z,21.55
2023-04-07T06:54:40.916Z,18.12
2023-04-07T06:57:42.717Z,17.62
2023-04-07T07:00:47.314Z,17.58
2023-04-07T07:03:49.277Z,17.52
2023-04-07T07:06:51.132Z,19.27
2023-04-07T07:09:54.480Z,17.65
2023-04-07T07:12:56.168Z,18.83
2023-04-07T07:15:57.902Z,17.67
2023-04-07T07:18:59.647Z,17.75
2023-04-07T07:22:04.163Z,18.37
2023-04-07T07:25:06.396Z,17.65
2023-04-07T07:28:09.386Z,18.70
2023-04-07T07:31:13.390Z,17.83
2023-04-07T07:34:15.445Z,18.52
2023-04-07T07:37:17.581Z,18.60
2023-04-07T07:40:19.625Z,19.00
2023-04-07T07:43:21.395Z,18.45
2023-04-07T07:46:26.152Z,18.70
2023-04-07T07:49:27.981Z,19.05
2023-04-07T07:52:29.688Z,19.40
2023-04-07T07:55:31.445Z,19.33
2023-04-07T07:58:33.162Z,19.23
2023-04-07T08:01:35.236Z,18.33
2023-04-07T08:04:37.777Z,18.23
2023-04-07T08:07:39.642Z,18.83
2023-04-07T08:10:41.563Z,18.73
2023-04-07T08:13:45.975Z,19.55
2023-04-07T08:16:48.093Z,20.73
2023-04-07T08:19:49.878Z,19.70
2023-04-07T08:22:51.585Z,19.83
2023-04-07T08:25:53.286Z,21.00
2023-04-07T08:28:56.142Z,20.60
2023-04-07T08:31:57.850Z,19.60
2023-04-07T08:34:59.585Z,23.05
2023-04-07T08:38:03.057Z,22.70
2023-04-07T08:41:10.213Z,22.20
2023-04-07T08:44:14.918Z,23.17
2023-04-07T08:47:17.905Z,21.55
2023-04-07T08:50:20.085Z,20.95
2023-04-07T08:53:29.644Z,20.52
2023-04-07T08:56:34.119Z,19.98
2023-04-07T08:59:36.706Z,21.27
2023-04-07T09:02:44.179Z,20.83
2023-04-07T09:08:48.376Z,21.37
2023-04-07T09:11:51.581Z,20.80
2023-04-07T09:14:56.197Z,20.73
2023-04-07T09:17:59.363Z,20.55
2023-04-07T09:21:07.828Z,17.87
2023-04-07T09:24:26.992Z,17.65
2023-04-07T09:27:28.827Z,17.12
2023-04-07T09:30:32.593Z,19.23
2023-04-07T09:33:35.546Z,19.00
2023-04-07T09:36:42.488Z,19.35
2023-04-07T09:39:52.648Z,18.70
2023-04-07T09:42:54.708Z,19.30
2023-04-07T09:46:08.563Z,17.45
2023-04-07T09:49:10.364Z,16.30
2023-04-07T09:52:12.350Z,16.25
2023-04-07T09:55:16.069Z,16.95
2023-04-07T09:58:18.825Z,16.73
2023-04-07T10:01:21.988Z,17.85
2023-04-07T10:04:25.214Z,17.45
2023-04-07T10:07:27.215Z,16.87
2023-04-07T10:10:31.855Z,16.55
2023-04-07T10:13:36.698Z,17.37
2023-04-07T10:16:38.961Z,17.75
2023-04-07T10:19:40.824Z,14.07
2023-04-07T10:22:44.457Z,16.02
2023-04-07T10:25:48.951Z,13.62
2023-04-07T10:28:54.197Z,16.40
2023-04-07T10:31:56.168Z,15.43
2023-04-07T10:34:59.667Z,15.00
2023-04-07T10:38:07.398Z,19.27
2023-04-07T10:41:36.511Z,17.48
2023-04-07T10:44:42.076Z,16.17
2023-04-07T10:47:59.727Z,14.70
2023-04-07T10:51:12.664Z,14.68
2023-04-07T10:54:22.531Z,13.82
2023-04-07T10:57:24.344Z,15.85
2023-04-07T11:00:26.075Z,14.63
2023-04-07T11:03:29.545Z,14.63
2023-04-07T11:06:31.646Z,15.05
2023-04-07T11:09:33.296Z,16.08
2023-04-07T11:12:34.912Z,16.05
2023-04-07T11:15:40.438Z,14.02
2023-04-07T11:18:43.369Z,14.15
2023-04-07T11:21:45.045Z,15.93
2023-04-07T11:24:47.253Z,15.07
2023-04-07T11:27:49.287Z,15.10
2023-04-07T11:30:53.918Z,14.70
2023-04-07T11:34:00.053Z,14.82
2023-04-07T11:37:22.250Z,14.52
2023-04-07T11:40:35.082Z,15.20
2023-04-07T11:43:37.809Z,15.68
2023-04-07T11:46:58.269Z,14.45
2023-04-07T11:50:00.030Z,14.95
2023-04-07T11:53:01.760Z,13.70
2023-04-07T11:56:10.352Z,15.60
2023-04-07T11:59:24.152Z,13.95
2023-04-07T12:02:33.879Z,13.90
2023-04-07T12:05:45.474Z,14.65
2023-04-07T12:08:47.178Z,14.73
2023-04-07T12:11:50.356Z,14.63
2023-04-07T12:14:52.645Z,15.07
2023-04-07T12:17:55.637Z,15.23
2023-04-07T12:20:58.996Z,28.40
2023-04-07T12:24:00.649Z,14.80
2023-04-07T12:27:03.152Z,14.77
2023-04-07T12:30:05.172Z,15.68
2023-04-07T12:33:07.252Z,16.30
2023-04-07T12:36:09.183Z,15.70
2023-04-07T12:39:10.893Z,13.05
2023-04-07T12:42:12.496Z,15.18
2023-04-07T12:45:14.176Z,14.95
2023-04-07T12:48:16.759Z,16.15
2023-04-07T12:51:18.582Z,14.98
2023-04-07T12:54:20.192Z,15.25
2023-04-07T12:57:21.934Z,14.60
2023-04-07T13:00:24.223Z,15.35
2023-04-07T13:03:26.148Z,15.88
2023-04-07T13:06:27.996Z,15.20
2023-04-07T13:09:29.626Z,16.23
2023-04-07T13:12:31.260Z,13.80
2023-04-07T13:15:33.015Z,13.82
2023-04-07T13:18:34.685Z,13.07
2023-04-07T13:21:46.024Z,13.80
2023-04-07T13:24:48.851Z,13.95
2023-04-07T13:27:50.854Z,13.85
2023-04-07T13:30:52.681Z,15.00
2023-04-07T13:33:54.427Z,13.35
2023-04-07T13:36:56.515Z,13.07
2023-04-07T13:39:58.150Z,12.50
2023-04-07T13:43:01.038Z,13.65
2023-04-07T13:46:02.694Z,14.23
2023-04-07T13:49:04.417Z,15.90
2023-04-07T13:52:06.028Z,13.80
2023-04-07T13:55:08.113Z,15.90
2023-04-07T13:58:09.958Z,13.43
2023-04-07T14:01:12.132Z,14.15
2023-04-07T14:04:14.480Z,13.00
2023-04-07T14:07:16.970Z,15.20
2023-04-07T14:10:18.916Z,17.25
2023-04-07T14:13:20.675Z,17.05
2023-04-07T14:16:23.074Z,17.77
2023-04-07T14:19:24.994Z,13.95
2023-04-07T14:22:26.774Z,16.67
2023-04-07T14:25:28.436Z,14.55
2023-04-07T14:28:30.147Z,17.02
2023-04-07T14:31:32.052Z,14.27
2023-04-07T14:34:33.681Z,14.70
2023-04-07T14:37:36.184Z,13.57
2023-04-07T14:40:37.887Z,14.32
2023-04-07T14:43:39.868Z,13.52
2023-04-07T14:46:42.665Z,13.48
2023-04-07T14:49:44.355Z,14.55
2023-04-07T14:52:46.037Z,17.73
2023-04-07T14:55:47.830Z,16.65
2023-04-07T14:58:49.460Z,18.05
2023-04-07T15:01:51.650Z,17.67
2023-04-07T15:04:53.553Z,17.08
2023-04-07T15:07:55.351Z,18.23
2023-04-07T15:10:57.053Z,14.70
2023-04-07T15:13:58.647Z,15.30
2023-04-07T15:17:00.225Z,16.98
2023-04-07T15:20:01.806Z,16.40
2023-04-07T15:23:03.592Z,16.67
2023-04-07T15:26:06.087Z,16.17
2023-04-07T15:29:07.725Z,14.98
2023-04-07T15:32:09.415Z,16.70
2023-04-07T15:35:11.077Z,17.00
2023-04-07T15:38:12.697Z,16.80
2023-04-07T15:41:15.876Z,15.32
2023-04-07T15:44:21.140Z,16.12
2023-04-07T15:47:22.789Z,16.20
2023-04-07T15:50:25.231Z,15.20
2023-04-07T15:53:26.964Z,14.98
2023-04-07T15:56:28.608Z,16.00
2023-04-07T15:59:31.155Z,16.85
2023-04-07T16:02:33.084Z,16.58
2023-04-07T16:05:34.887Z,16.08
2023-04-07T16:08:36.768Z,22.92
2023-04-07T16:11:38.375Z,34.03
2023-04-07T16:14:40.058Z,50.67
2023-04-07T16:17:47.492Z,48.95
2023-04-07T16:20:49.170Z,27.08
2023-04-07T16:23:50.930Z,27.40
2023-04-07T16:26:52.647Z,26.55
2023-04-07T16:29:54.319Z,15.57
2023-04-07T16:32:56.152Z,16.23
2023-04-07T16:35:57.942Z,16.10
2023-04-07T16:38:59.654Z,17.52
2023-04-07T16:42:01.338Z,16.77
2023-04-07T16:45:03.275Z,16.45
2023-04-07T16:48:04.931Z,16.50
2023-04-07T16:51:06.661Z,16.52
2023-04-07T16:54:08.290Z,20.12
2023-04-07T16:57:09.945Z,18.40
2023-04-07T17:00:12.226Z,17.98
2023-04-07T17:03:15.459Z,21.75
2023-04-07T17:06:17.457Z,17.73
2023-04-07T17:09:19.964Z,19.20
2023-04-07T17:12:22.740Z,16.48
2023-04-07T17:15:24.511Z,16.37
2023-04-07T17:18:26.206Z,17.70
2023-04-07T17:21:27.830Z,17.98
2023-04-07T17:24:29.445Z,18.52
2023-04-07T17:27:31.242Z,19.65
2023-04-07T17:30:33.160Z,20.00
2023-04-07T17:33:35.232Z,23.98
2023-04-07T17:36:37.769Z,24.27
2023-04-07T17:39:39.483Z,18.95
2023-04-07T17:42:41.730Z,23.73
2023-04-07T17:45:43.411Z,24.45
2023-04-07T17:48:45.124Z,25.30
2023-04-07T17:51:46.734Z,27.95
2023-04-07T17:54:48.418Z,33.10
2023-04-07T17:57:50.678Z,25.23
2023-04-07T18:00:52.345Z,20.25
2023-04-07T18:03:54.434Z,17.83
2023-04-07T18:06:56.193Z,18.52
2023-04-07T18:09:58.047Z,18.23
2023-04-07T18:12:59.888Z,20.08
2023-04-07T18:16:01.587Z,25.02
2023-04-07T18:19:03.467Z,26.27
2023-04-07T18:22:05.567Z,21.83
2023-04-07T18:25:07.510Z,16.80
2023-04-07T18:28:09.193Z,17.23
2023-04-07T18:31:11.113Z,19.55
2023-04-07T18:34:12.844Z,18.60
2023-04-07T18:37:14.559Z,19.58
2023-04-07T18:40:16.498Z,19.90
2023-04-07T18:43:18.475Z,18.15
2023-04-07T18:46:20.158Z,18.70
2023-04-07T18:49:22.181Z,18.83
2023-04-07T18:52:25.624Z,17.80
2023-04-07T18:55:27.349Z,19.65
2023-04-07T18:58:29.061Z,18.08
2023-04-07T19:01:31.437Z,19.73
2023-04-07T19:04:33.255Z,15.93
2023-04-07T19:07:35.040Z,15.40
2023-04-07T19:10:36.934Z,15.00
2023-04-07T19:13:38.595Z,15.20
2023-04-07T19:16:41.185Z,14.50
2023-04-07T19:19:42.843Z,15.57
2023-04-07T19:22:44.568Z,16.40
2023-04-07T19:25:46.269Z,17.52
2023-04-07T19:28:49.207Z,16.95
2023-04-07T19:31:53.049Z,16.25
2023-04-07T19:34:54.671Z,17.30
2023-04-07T19:37:56.700Z,15.60
2023-04-07T19:40:58.425Z,15.63
2023-04-07T19:44:00.190Z,16.40
2023-04-07T19:47:01.878Z,15.45
2023-04-07T19:50:04.295Z,15.25
2023-04-07T19:53:06.162Z,15.80
2023-04-07T19:56:07.934Z,15.95
2023-04-07T19:59:09.550Z,15.27
2023-04-07T20:02:11.677Z,15.35
2023-04-07T20:05:13.516Z,16.60
2023-04-07T20:08:15.419Z,15.68
2023-04-07T20:11:17.177Z,14.70
2023-04-07T20:14:18.932Z,16.50
2023-04-07T20:17:20.770Z,16.73
2023-04-07T20:20:23.627Z,16.10
2023-04-07T20:23:25.360Z,15.43
2023-04-07T20:26:27.342Z,15.65
2023-04-07T20:29:28.980Z,14.98
2023-04-07T20:32:31.045Z,16.65
2023-04-07T20:35:32.646Z,16.27
2023-04-07T20:38:34.581Z,15.80
2023-04-07T20:41:36.477Z,15.60
2023-04-07T20:44:38.141Z,16.58
2023-04-07T20:47:40.602Z,15.43
2023-04-07T20:50:42.454Z,15.20
2023-04-07T20:53:44.097Z,15.90
2023-04-07T20:56:45.827Z,15.35
2023-04-07T20:59:47.519Z,16.62
2023-04-07T21:02:49.349Z,15.93
2023-04-07T21:05:51.361Z,16.77
2023-04-07T21:08:52.994Z,14.50
2023-04-07T21:11:54.792Z,15.55
2023-04-07T21:14:56.399Z,16.15
2023-04-07T21:17:58.040Z,16.60
2023-04-07T21:21:02.210Z,16.02
2023-04-07T21:24:04.086Z,16.73
2023-04-07T21:27:06.162Z,17.05
2023-04-07T21:30:08.426Z,15.50
2023-04-07T21:33:10.186Z,16.27
2023-04-07T21:36:13.112Z,16.70
2023-04-07T21:39:14.877Z,15.90
2023-04-07T21:42:16.632Z,17.52
2023-04-07T21:45:18.382Z,15.55
2023-04-07T21:48:23.498Z,15.57
2023-04-07T21:51:25.126Z,15.82
2023-04-07T21:54:26.856Z,15.90
2023-04-07T21:57:28.582Z,15.93
2023-04-07T22:00:30.592Z,15.88
2023-04-07T22:03:32.454Z,16.60
2023-04-07T22:06:34.280Z,15.70
2023-04-07T22:09:37.007Z,15.70
2023-04-07T22:12:38.788Z,17.67
2023-04-07T22:15:40.527Z,17.12
2023-04-07T22:18:42.246Z,17.83
2023-04-07T22:21:43.909Z,16.92
2023-04-07T22:24:45.512Z,17.40
2023-04-07T22:27:47.136Z,18.87
2023-04-07T22:30:48.773Z,18.02
2023-04-07T22:33:50.415Z,17.87
2023-04-07T22:36:52.052Z,17.27
2023-04-07T22:39:53.688Z,18.12
2023-04-07T22:42:55.880Z,17.27
2023-04-07T22:45:57.527Z,16.70
2023-04-07T22:48:59.180Z,17.25
2023-04-07T22:52:00.872Z,17.00
2023-04-07T22:55:02.481Z,17.87
2023-04-07T22:58:04.263Z,18.83
2023-04-07T23:01:05.949Z,17.15
2023-04-07T23:04:07.636Z,16.83
2023-04-07T23:07:09.326Z,15.90
2023-04-07T23:10:11.491Z,17.40
2023-04-07T23:13:15.213Z,17.37
2023-04-07T23:16:16.906Z,16.75
2023-04-07T23:19:18.592Z,17.37
2023-04-07T23:22:20.266Z,17.80
2023-04-07T23:25:22.256Z,16.67
2023-04-07T23:28:23.973Z,17.20
2023-04-07T23:31:25.714Z,17.73
2023-04-07T23:34:27.340Z,16.52
2023-04-07T23:37:29.000Z,17.62
2023-04-07T23:40:30.666Z,16.55
2023-04-07T23:43:32.638Z,17.08
2023-04-07T23:46:34.489Z,17.02
2023-04-07T23:49:36.107Z,17.75
2023-04-07T23:52:37.800Z,17.62
2023-04-07T23:55:39.416Z,18.37
2023-04-07T23:58:41.260Z,17.87
